createdAt,value
2023-05-06T00:00:24.796Z,20.25
2023-05-06T00:02:51.644Z,24.38
2023-05-06T00:05:18.518Z,24.30
2023-05-06T00:07:46.251Z,22.88
2023-05-06T00:10:14.872Z,27.42
2023-05-06T00:12:41.652Z,22.20
2023-05-06T00:15:08.875Z,23.15
2023-05-06T00:17:35.801Z,21.73
2023-05-06T00:20:03.719Z,19.90
2023-05-06T00:22:30.536Z,23.20
2023-05-06T00:24:57.181Z,25.45
2023-05-06T00:27:23.877Z,21.40
2023-05-06T00:29:50.633Z,20.13
2023-05-06T00:32:17.398Z,19.88
2023-05-06T00:34:44.066Z,21.48
2023-05-06T00:37:11.062Z,22.80
2023-05-06T00:39:37.858Z,20.70
2023-05-06T00:42:04.662Z,22.13
2023-05-06T00:44:34.130Z,18.75
2023-05-06T00:47:02.170Z,22.08
2023-05-06T00:49:30.528Z,21.33
2023-05-06T00:51:57.745Z,24.23
2023-05-06T00:54:29.604Z,23.25
2023-05-06T00:56:56.383Z,24.92
2023-05-06T00:59:23.347Z,21.40
2023-05-06T01:01:52.142Z,26.02
2023-05-06T01:04:18.985Z,22.50
2023-05-06T01:07:04.084Z,25.92
2023-05-06T01:09:55.039Z,26.80
2023-05-06T01:12:39.262Z,23.92
2023-05-06T01:15:14.960Z,29.02
2023-05-06T01:17:45.056Z,24.40
2023-05-06T01:20:12.997Z,22.67
2023-05-06T01:22:40.204Z,23.70
2023-05-06T01:25:08.204Z,26.73
2023-05-06T01:27:35.376Z,28.10
2023-05-06T01:30:05.038Z,26.20
2023-05-06T01:32:38.082Z,29.83
2023-05-06T01:35:15.691Z,24.50
2023-05-06T01:37:56.314Z,35.30
2023-05-06T01:40:26.924Z,30.00
2023-05-06T01:42:55.014Z,30.80
2023-05-06T01:45:24.733Z,29.33
2023-05-06T01:47:51.508Z,29.42
2023-05-06T01:50:18.439Z,28.65
2023-05-06T01:52:45.203Z,29.20
2023-05-06T01:55:12.323Z,31.30
2023-05-06T01:57:39.545Z,31.00
2023-05-06T02:00:06.954Z,28.75
2023-05-06T02:02:40.704Z,32.65
2023-05-06T02:05:08.327Z,36.92
2023-05-06T02:07:39.526Z,26.88
2023-05-06T02:10:06.937Z,29.08
2023-05-06T02:12:35.619Z,30.77
2023-05-06T02:15:02.380Z,34.72
2023-05-06T02:17:29.061Z,28.75
2023-05-06T02:19:56.449Z,29.20
2023-05-06T02:22:23.187Z,29.23
2023-05-06T02:24:49.814Z,32.95
2023-05-06T02:27:16.472Z,31.80
2023-05-06T02:29:43.175Z,27.58
2023-05-06T02:32:09.872Z,28.92
2023-05-06T02:34:36.643Z,29.58
2023-05-06T02:37:03.454Z,29.38
2023-05-06T02:39:30.181Z,30.70
2023-05-06T02:41:56.801Z,30.20
2023-05-06T02:44:23.538Z,48.45
2023-05-06T02:46:50.452Z,24.80
2023-05-06T02:49:18.166Z,55.28
2023-05-06T02:51:46.142Z,25.80
2023-05-06T02:54:12.806Z,29.20
2023-05-06T02:56:39.587Z,29.00
2023-05-06T02:59:06.396Z,40.40
2023-05-06T03:01:33.230Z,35.75
2023-05-06T03:04:00.092Z,33.88
2023-05-06T03:06:27.972Z,31.15
2023-05-06T03:08:54.786Z,47.15
2023-05-06T03:11:21.445Z,37.88
2023-05-06T03:13:48.209Z,50.63
2023-05-06T03:16:15.100Z,43.70
2023-05-06T03:18:45.522Z,24.55
2023-05-06T03:21:13.040Z,35.70
2023-05-06T03:23:41.936Z,38.67
2023-05-06T03:26:08.722Z,30.35
2023-05-06T03:28:36.270Z,39.03
2023-05-06T03:31:04.676Z,31.10
2023-05-06T03:33:34.241Z,42.67
2023-05-06T03:36:02.639Z,31.05
2023-05-06T03:38:29.771Z,40.42
2023-05-06T03:41:01.428Z,31.05
2023-05-06T03:43:31.797Z,34.17
2023-05-06T03:46:02.222Z,29.23
2023-05-06T03:48:29.608Z,35.25
2023-05-06T03:50:56.291Z,35.80
2023-05-06T03:53:23.655Z,30.02
2023-05-06T03:55:51.797Z,37.72
2023-05-06T03:58:18.528Z,30.17
2023-05-06T04:00:46.449Z,31.02
2023-05-06T04:03:13.262Z,41.72
2023-05-06T04:05:47.048Z,32.03
2023-05-06T04:08:17.077Z,51.45
2023-05-06T04:10:45.499Z,34.30
2023-05-06T04:13:22.412Z,55.35
2023-05-06T04:15:50.160Z,32.55
2023-05-06T04:18:21.122Z,38.53
2023-05-06T04:20:56.853Z,31.42
2023-05-06T04:23:24.689Z,28.98
2023-05-06T04:25:51.659Z,37.50
2023-05-06T04:28:20.696Z,29.67
2023-05-06T04:30:50.851Z,43.95
2023-05-06T04:33:19.537Z,39.30
2023-05-06T04:35:54.504Z,29.63
2023-05-06T04:38:22.654Z,43.70
2023-05-06T04:40:50.080Z,35.67
2023-05-06T04:43:18.199Z,34.95
2023-05-06T04:45:49.521Z,44.85
2023-05-06T04:48:24.989Z,28.75
2023-05-06T04:50:54.795Z,31.60
2023-05-06T04:53:21.496Z,34.58
2023-05-06T04:55:48.141Z,37.05
2023-05-06T04:58:16.210Z,28.60
2023-05-06T05:00:44.569Z,37.08
2023-05-06T05:03:11.498Z,49.95
2023-05-06T05:05:38.437Z,52.83
2023-05-06T05:08:13.461Z,32.58
2023-05-06T05:10:43.714Z,27.25
2023-05-06T05:13:14.217Z,40.60
2023-05-06T05:15:41.672Z,35.72
2023-05-06T05:18:09.222Z,41.25
2023-05-06T05:20:36.133Z,30.23
2023-05-06T05:23:05.001Z,29.80
2023-05-06T05:25:32.929Z,43.08
2023-05-06T05:27:59.724Z,59.92
2023-05-06T05:30:27.939Z,31.15
2023-05-06T05:32:54.799Z,30.88
2023-05-06T05:35:21.558Z,32.35
2023-05-06T05:37:49.254Z,42.97
2023-05-06T05:40:16.457Z,31.95
2023-05-06T05:42:43.952Z,34.47
2023-05-06T05:45:22.053Z,31.95
2023-05-06T05:47:50.035Z,32.72
2023-05-06T05:50:17.695Z,35.90
2023-05-06T05:52:46.119Z,35.78
2023-05-06T05:55:13.280Z,32.30
2023-05-06T05:57:44.531Z,32.35
2023-05-06T06:00:13.574Z,33.25
2023-05-06T06:02:46.415Z,42.22
2023-05-06T06:05:18.003Z,35.97
2023-05-06T06:07:45.307Z,31.83
2023-05-06T06:10:13.993Z,30.10
2023-05-06T06:12:44.089Z,30.98
2023-05-06T06:17:41.842Z,30.38
2023-05-06T06:20:10.401Z,29.30
2023-05-06T06:22:37.936Z,31.27
2023-05-06T06:25:06.399Z,28.52
2023-05-06T06:27:36.668Z,29.13
2023-05-06T06:30:04.118Z,31.58
2023-05-06T06:32:31.203Z,28.20
2023-05-06T06:34:57.939Z,32.65
2023-05-06T06:37:24.669Z,33.22
2023-05-06T06:39:51.324Z,28.92
2023-05-06T06:42:17.959Z,26.95
2023-05-06T06:45:06.965Z,35.97
2023-05-06T06:47:34.058Z,33.83
2023-05-06T06:50:00.882Z,33.45
2023-05-06T06:52:28.055Z,35.83
2023-05-06T06:54:57.787Z,32.85
2023-05-06T06:57:24.481Z,34.22
2023-05-06T06:59:52.516Z,30.92
2023-05-06T07:02:21.362Z,32.83
2023-05-06T07:04:48.408Z,31.60
2023-05-06T07:07:15.462Z,29.83
2023-05-06T07:09:42.101Z,34.40
2023-05-06T07:12:08.983Z,34.13
2023-05-06T07:14:35.692Z,34.83
2023-05-06T07:17:02.512Z,34.92
2023-05-06T07:19:31.407Z,31.15
2023-05-06T07:21:58.224Z,31.08
2023-05-06T07:24:24.987Z,35.42
2023-05-06T07:26:51.608Z,33.05
2023-05-06T07:29:18.260Z,32.78
2023-05-06T07:31:44.950Z,38.00
2023-05-06T07:34:11.720Z,40.97
2023-05-06T07:36:43.297Z,29.77
2023-05-06T07:39:10.886Z,32.00
2023-05-06T07:41:37.832Z,32.78
2023-05-06T07:44:04.924Z,29.73
2023-05-06T07:46:32.045Z,34.03
2023-05-06T07:48:58.786Z,26.65
2023-05-06T07:51:25.437Z,29.98
2023-05-06T07:53:52.101Z,28.00
2023-05-06T07:56:18.826Z,26.92
2023-05-06T07:58:45.514Z,24.75
2023-05-06T08:01:12.177Z,26.92
2023-05-06T08:03:39.026Z,23.73
2023-05-06T08:06:06.742Z,20.83
2023-05-06T08:08:33.832Z,16.23
2023-05-06T08:11:01.046Z,19.10
2023-05-06T08:13:28.168Z,16.88
2023-05-06T08:15:56.757Z,12.00
2023-05-06T08:18:23.602Z,12.77
2023-05-06T08:20:51.188Z,14.32
2023-05-06T08:23:17.877Z,11.80
2023-05-06T08:25:44.557Z,10.10
2023-05-06T08:28:11.228Z,11.77
2023-05-06T08:30:38.072Z,11.38
2023-05-06T08:33:04.795Z,9.93
2023-05-06T08:35:31.512Z,11.23
2023-05-06T08:37:58.205Z,16.92
2023-05-06T08:40:26.931Z,12.43
2023-05-06T08:42:57.424Z,13.40
2023-05-06T08:45:24.369Z,11.07
2023-05-06T08:47:51.757Z,18.83
2023-05-06T08:50:23.672Z,10.65
2023-05-06T08:55:18.874Z,13.30
2023-05-06T08:57:46.274Z,13.65
2023-05-06T09:00:14.706Z,12.73
2023-05-06T09:02:43.267Z,10.73
2023-05-06T09:05:11.981Z,10.10
2023-05-06T09:07:38.823Z,10.02
2023-05-06T09:10:13.279Z,8.35
2023-05-06T09:12:40.194Z,10.38
2023-05-06T09:15:07.767Z,9.48
2023-05-06T09:17:34.659Z,7.20
2023-05-06T09:20:02.420Z,7.53
2023-05-06T09:22:31.199Z,8.13
2023-05-06T09:24:58.739Z,5.90
2023-05-06T09:27:32.867Z,7.05
2023-05-06T09:30:02.251Z,8.18
2023-05-06T09:32:29.628Z,6.18
2023-05-06T09:34:56.600Z,6.25
2023-05-06T09:37:24.306Z,7.35
2023-05-06T09:39:57.243Z,7.15
2023-05-06T09:42:25.346Z,6.53
2023-05-06T09:44:53.932Z,8.85
2023-05-06T09:47:28.067Z,7.05
2023-05-06T09:49:59.267Z,10.60
2023-05-06T09:52:30.155Z,9.23
2023-05-06T09:54:57.642Z,7.70
2023-05-06T09:57:24.840Z,7.20
2023-05-06T09:59:54.366Z,6.97
2023-05-06T10:02:23.446Z,8.52
2023-05-06T10:04:51.201Z,5.22
2023-05-06T10:07:22.762Z,5.93
2023-05-06T10:09:51.282Z,4.47
2023-05-06T10:12:18.866Z,5.18
2023-05-06T10:14:45.567Z,6.88
2023-05-06T10:17:13.184Z,4.97
2023-05-06T10:19:43.699Z,7.95
2023-05-06T10:22:33.012Z,3.55
2023-05-06T10:25:16.721Z,4.32
2023-05-06T10:27:46.235Z,4.47
2023-05-06T10:30:17.036Z,3.38
2023-05-06T10:32:44.955Z,5.22
2023-05-06T10:35:26.837Z,5.35
2023-05-06T10:40:22.719Z,4.35
2023-05-06T10:42:49.505Z,5.13
2023-05-06T10:45:16.569Z,4.93
2023-05-06T10:47:55.831Z,6.07
2023-05-06T10:50:26.893Z,5.15
2023-05-06T10:52:58.825Z,7.60
2023-05-06T10:55:27.252Z,3.22
2023-05-06T10:57:56.669Z,3.40
2023-05-06T11:00:23.984Z,8.57
2023-05-06T11:02:57.871Z,3.80
2023-05-06T11:05:25.773Z,2.83
2023-05-06T11:08:06.102Z,4.07
2023-05-06T11:10:33.415Z,4.28
2023-05-06T11:13:19.826Z,3.30
2023-05-06T11:15:47.230Z,4.03
2023-05-06T11:18:26.796Z,4.95
2023-05-06T11:21:01.007Z,2.72
2023-05-06T11:23:53.672Z,2.53
2023-05-06T11:26:21.229Z,3.38
2023-05-06T11:28:51.468Z,1.02
2023-05-06T11:31:19.042Z,2.08
2023-05-06T11:33:47.961Z,2.70
2023-05-06T11:36:19.843Z,2.78
2023-05-06T11:38:52.336Z,2.67
2023-05-06T11:41:19.905Z,2.28
2023-05-06T11:43:49.898Z,1.95
2023-05-06T11:46:19.072Z,1.50
2023-05-06T11:48:45.861Z,2.40
2023-05-06T11:51:12.616Z,10.70
2023-05-06T11:53:39.380Z,3.45
2023-05-06T11:56:07.153Z,4.07
2023-05-06T11:58:33.913Z,3.63
2023-05-06T12:01:02.249Z,1.45
2023-05-06T12:03:31.389Z,2.75
2023-05-06T12:05:58.560Z,1.25
2023-05-06T12:08:32.543Z,2.55
2023-05-06T12:11:04.536Z,2.90
2023-05-06T12:13:31.701Z,2.78
2023-05-06T12:15:59.914Z,3.03
2023-05-06T12:18:28.335Z,2.20
2023-05-06T12:20:56.009Z,2.00
2023-05-06T12:23:23.065Z,2.95
2023-05-06T12:26:06.581Z,4.53
2023-05-06T12:28:36.504Z,3.53
2023-05-06T12:31:24.191Z,3.70
2023-05-06T12:33:51.284Z,3.28
2023-05-06T12:36:18.657Z,4.78
2023-05-06T12:38:56.895Z,3.42
2023-05-06T12:41:25.886Z,3.13
2023-05-06T12:43:52.815Z,2.67
2023-05-06T12:46:19.616Z,3.38
2023-05-06T12:49:00.397Z,5.65
2023-05-06T12:51:28.883Z,3.80
2023-05-06T12:53:55.664Z,3.28
2023-05-06T12:56:22.751Z,2.95
2023-05-06T12:58:59.826Z,3.50
2023-05-06T13:01:27.038Z,2.30
2023-05-06T13:03:56.859Z,2.95
2023-05-06T13:06:23.824Z,3.55
2023-05-06T13:08:50.571Z,4.45
2023-05-06T13:11:17.306Z,4.60
2023-05-06T13:13:44.077Z,5.22
2023-05-06T13:16:10.850Z,4.13
2023-05-06T13:18:37.642Z,4.90
2023-05-06T13:21:04.488Z,3.47
2023-05-06T13:23:31.747Z,4.50
2023-05-06T13:26:04.625Z,2.40
2023-05-06T13:28:33.629Z,3.85
2023-05-06T13:31:00.467Z,2.15
2023-05-06T13:33:27.827Z,3.30
2023-05-06T13:35:54.773Z,2.90
2023-05-06T13:38:22.017Z,3.45
2023-05-06T13:40:52.573Z,2.58
2023-05-06T13:43:20.183Z,3.67
2023-05-06T13:45:47.182Z,7.07
2023-05-06T13:48:14.630Z,5.55
2023-05-06T13:50:42.765Z,3.25
2023-05-06T13:53:09.590Z,1.98
2023-05-06T13:55:37.667Z,3.25
2023-05-06T13:58:06.406Z,3.63
2023-05-06T14:00:33.829Z,2.38
2023-05-06T14:03:02.720Z,2.25
2023-05-06T14:05:29.660Z,3.60
2023-05-06T14:07:56.320Z,2.03
2023-05-06T14:10:23.123Z,1.98
2023-05-06T14:12:50.102Z,3.30
2023-05-06T14:15:16.932Z,2.78
2023-05-06T14:17:43.880Z,3.42
2023-05-06T14:20:10.984Z,3.78
2023-05-06T14:22:41.070Z,3.47
2023-05-06T14:25:11.267Z,4.00
2023-05-06T14:27:39.411Z,3.10
2023-05-06T14:30:09.792Z,2.25
2023-05-06T14:32:37.402Z,2.17
2023-05-06T14:35:04.578Z,3.38
2023-05-06T14:37:32.933Z,5.38
2023-05-06T14:39:59.669Z,3.85
2023-05-06T14:42:26.660Z,3.70
2023-05-06T14:44:54.132Z,3.83
2023-05-06T14:47:20.975Z,4.82
2023-05-06T14:49:47.764Z,4.72
2023-05-06T14:52:14.586Z,3.15
2023-05-06T14:54:43.139Z,2.60
2023-05-06T14:57:10.514Z,4.70
2023-05-06T14:59:38.557Z,7.85
2023-05-06T15:02:08.735Z,3.80
2023-05-06T15:04:36.517Z,4.63
2023-05-06T15:07:03.416Z,6.88
2023-05-06T15:09:30.287Z,2.92
2023-05-06T15:11:57.457Z,5.05
2023-05-06T15:14:24.181Z,5.00
2023-05-06T15:16:52.168Z,2.90
2023-05-06T15:19:25.398Z,3.72
2023-05-06T15:21:52.077Z,5.95
2023-05-06T15:24:18.767Z,10.13
2023-05-06T15:26:45.868Z,6.30
2023-05-06T15:29:12.844Z,4.15
2023-05-06T15:31:40.766Z,3.67
2023-05-06T15:34:09.062Z,5.40
2023-05-06T15:36:35.848Z,3.40
2023-05-06T15:39:03.226Z,5.32
2023-05-06T15:41:32.383Z,2.55
2023-05-06T15:44:00.743Z,5.57
2023-05-06T15:46:29.259Z,3.38
2023-05-06T15:49:15.613Z,4.95
2023-05-06T15:51:43.347Z,4.55
2023-05-06T15:54:10.082Z,3.30
2023-05-06T15:56:40.546Z,7.57
2023-05-06T15:59:08.226Z,5.15
2023-05-06T16:01:57.362Z,6.95
2023-05-06T16:04:22.411Z,4.63
2023-05-06T16:06:49.683Z,3.83
2023-05-06T16:09:16.370Z,6.93
2023-05-06T16:11:43.089Z,4.40
2023-05-06T16:14:09.746Z,7.63
2023-05-06T16:16:36.613Z,4.53
2023-05-06T16:19:03.499Z,6.45
2023-05-06T16:21:30.246Z,5.00
2023-05-06T16:23:56.929Z,4.50
2023-05-06T16:26:24.491Z,6.57
2023-05-06T16:28:53.583Z,5.22
2023-05-06T16:31:20.419Z,3.55
2023-05-06T16:33:47.275Z,5.57
2023-05-06T16:36:14.000Z,4.93
2023-05-06T16:38:40.634Z,4.65
2023-05-06T16:41:07.335Z,5.93
2023-05-06T16:43:34.653Z,4.20
2023-05-06T16:46:01.361Z,3.30
2023-05-06T16:48:28.108Z,6.95
2023-05-06T16:50:54.911Z,4.07
2023-05-06T16:53:21.604Z,4.25
2023-05-06T16:55:49.430Z,5.68
2023-05-06T16:58:16.247Z,8.50
2023-05-06T17:00:43.119Z,5.07
2023-05-06T17:03:10.197Z,6.10
2023-05-06T17:05:37.203Z,4.60
2023-05-06T17:08:04.115Z,7.90
2023-05-06T17:10:30.922Z,4.05
2023-05-06T17:12:58.161Z,7.32
2023-05-06T17:15:25.687Z,10.23
2023-05-06T17:17:52.824Z,5.68
2023-05-06T17:20:20.068Z,5.38
2023-05-06T17:22:47.005Z,6.75
2023-05-06T17:25:14.044Z,7.75
2023-05-06T17:27:41.055Z,5.18
2023-05-06T17:30:12.093Z,4.22
2023-05-06T17:32:39.253Z,6.85
2023-05-06T17:35:06.821Z,5.78
2023-05-06T17:37:34.375Z,8.70
2023-05-06T17:40:01.715Z,5.63
2023-05-06T17:42:28.702Z,5.57
2023-05-06T17:44:55.423Z,4.30
2023-05-06T17:47:22.915Z,7.90
2023-05-06T17:49:53.361Z,5.18
2023-05-06T17:52:20.513Z,8.20
2023-05-06T17:54:56.969Z,6.57
2023-05-06T17:57:30.390Z,9.27
2023-05-06T17:59:57.072Z,5.15
2023-05-06T18:02:23.849Z,6.35
2023-05-06T18:04:51.563Z,6.50
2023-05-06T18:07:18.313Z,6.57
2023-05-06T18:09:51.667Z,5.38
2023-05-06T18:12:20.294Z,7.03
2023-05-06T18:14:47.799Z,5.50
2023-05-06T18:17:14.475Z,7.60
2023-05-06T18:19:41.787Z,7.00
2023-05-06T18:22:09.212Z,6.95
2023-05-06T18:24:37.175Z,8.20
2023-05-06T18:27:04.345Z,8.02
2023-05-06T18:29:32.639Z,4.32
2023-05-06T18:32:00.292Z,6.30
2023-05-06T18:34:27.952Z,5.18
2023-05-06T18:36:54.593Z,4.95
2023-05-06T18:39:23.622Z,8.05
2023-05-06T18:41:50.393Z,4.97
2023-05-06T18:44:17.127Z,6.10
2023-05-06T18:46:43.759Z,5.00
2023-05-06T18:49:10.724Z,4.50
2023-05-06T18:51:37.438Z,6.57
2023-05-06T18:54:04.082Z,5.03
2023-05-06T18:56:30.838Z,4.18
2023-05-06T18:58:57.702Z,5.28
2023-05-06T19:01:25.072Z,4.05
2023-05-06T19:03:51.935Z,5.43
2023-05-06T19:06:18.662Z,4.18
2023-05-06T19:08:45.362Z,5.13
2023-05-06T19:11:16.529Z,7.60
2023-05-06T19:13:43.878Z,5.72
2023-05-06T19:16:12.273Z,6.95
2023-05-06T19:18:39.218Z,5.28
2023-05-06T19:21:05.906Z,6.15
2023-05-06T19:23:32.845Z,4.38
2023-05-06T19:25:59.505Z,6.38
2023-05-06T19:28:26.353Z,6.05
2023-05-06T19:30:53.233Z,5.65
2023-05-06T19:33:19.962Z,6.75
2023-05-06T19:35:46.679Z,5.45
2023-05-06T19:38:13.372Z,5.78
2023-05-06T19:40:40.116Z,5.70
2023-05-06T19:43:07.062Z,6.45
2023-05-06T19:45:34.326Z,5.70
2023-05-06T19:48:04.163Z,6.28
2023-05-06T19:50:32.389Z,6.22
2023-05-06T19:52:59.242Z,7.15
2023-05-06T19:55:26.010Z,5.63
2023-05-06T19:57:56.341Z,5.63
2023-05-06T20:00:25.353Z,6.90
2023-05-06T20:02:52.116Z,7.07
2023-05-06T20:05:19.040Z,10.52
2023-05-06T20:07:46.025Z,12.93
2023-05-06T20:10:13.464Z,11.02
2023-05-06T20:12:41.089Z,8.93
2023-05-06T20:15:09.009Z,8.77
2023-05-06T20:17:36.007Z,15.25
2023-05-06T20:20:09.113Z,11.27
2023-05-06T20:22:38.124Z,13.43
2023-05-06T20:25:14.368Z,10.77
2023-05-06T20:27:41.042Z,13.52
2023-05-06T20:30:09.643Z,10.70
2023-05-06T20:32:37.552Z,16.02
2023-05-06T20:35:05.217Z,12.85
2023-05-06T20:37:36.684Z,16.85
2023-05-06T20:40:04.904Z,16.73
2023-05-06T20:42:32.012Z,20.80
2023-05-06T20:44:59.311Z,15.30
2023-05-06T20:47:26.467Z,16.90
2023-05-06T20:49:53.431Z,16.83
2023-05-06T20:52:21.496Z,17.17
2023-05-06T20:54:48.381Z,21.52
2023-05-06T20:57:16.586Z,20.02
2023-05-06T20:59:43.489Z,17.10
2023-05-06T21:02:10.563Z,18.20
2023-05-06T21:04:37.315Z,16.85
2023-05-06T21:07:03.978Z,16.98
2023-05-06T21:09:30.876Z,21.08
2023-05-06T21:11:58.894Z,14.65
2023-05-06T21:14:26.749Z,22.10
2023-05-06T21:16:53.833Z,21.15
2023-05-06T21:19:20.946Z,18.60
2023-05-06T21:21:48.227Z,18.85
2023-05-06T21:24:15.065Z,18.80
2023-05-06T21:26:41.723Z,18.15
2023-05-06T21:29:08.424Z,23.00
2023-05-06T21:31:35.262Z,19.52
2023-05-06T21:34:03.432Z,19.38
2023-05-06T21:36:30.146Z,20.45
2023-05-06T21:39:06.557Z,23.25
2023-05-06T21:41:35.534Z,20.67
2023-05-06T21:44:06.801Z,21.42
2023-05-06T21:46:34.722Z,24.55
2023-05-06T21:49:02.411Z,21.05
2023-05-06T21:51:32.327Z,25.20
2023-05-06T21:53:59.204Z,23.17
2023-05-06T21:56:25.912Z,24.10
2023-05-06T21:58:54.545Z,21.40
2023-05-06T22:01:21.822Z,21.60
2023-05-06T22:03:48.658Z,30.67
2023-05-06T22:06:15.678Z,23.00
2023-05-06T22:08:42.520Z,22.67
2023-05-06T22:11:09.280Z,21.67
2023-05-06T22:13:36.143Z,22.15
2023-05-06T22:16:03.432Z,23.77
2023-05-06T22:18:30.273Z,22.75
2023-05-06T22:20:57.664Z,23.52
2023-05-06T22:23:25.433Z,22.85
2023-05-06T22:25:52.227Z,25.65
2023-05-06T22:28:19.866Z,21.52
2023-05-06T22:30:46.655Z,22.10
2023-05-06T22:33:13.366Z,23.40
2023-05-06T22:35:40.101Z,19.92
2023-05-06T22:38:08.162Z,26.13
2023-05-06T22:40:34.969Z,21.55
2023-05-06T22:43:02.810Z,23.95
2023-05-06T22:45:29.632Z,23.15
2023-05-06T22:47:57.333Z,19.15
2023-05-06T22:50:25.180Z,21.88
2023-05-06T22:52:52.568Z,22.52
2023-05-06T22:55:19.659Z,24.10
2023-05-06T22:57:50.329Z,23.25
2023-05-06T23:00:19.496Z,20.08
2023-05-06T23:02:46.742Z,24.80
2023-05-06T23:05:14.008Z,22.42
2023-05-06T23:07:41.532Z,27.02
2023-05-06T23:10:09.018Z,25.92
2023-05-06T23:12:36.235Z,27.20
2023-05-06T23:15:03.615Z,24.05
2023-05-06T23:17:30.910Z,27.33
2023-05-06T23:19:59.114Z,22.55
2023-05-06T23:22:27.025Z,21.80
2023-05-06T23:24:55.143Z,25.58
2023-05-06T23:27:22.532Z,29.88
2023-05-06T23:29:49.328Z,28.77
2023-05-06T23:32:17.153Z,25.85
2023-05-06T23:34:44.369Z,23.67
2023-05-06T23:37:11.916Z,24.35
2023-05-06T23:39:39.164Z,25.30
2023-05-06T23:42:06.798Z,31.77
2023-05-06T23:44:34.107Z,27.80
2023-05-06T23:47:02.460Z,31.60
2023-05-06T23:49:29.320Z,28.65
2023-05-06T23:51:56.489Z,27.60
2023-05-06T23:54:23.973Z,26.98
2023-05-06T23:56:50.811Z,27.30
2023-05-06T23:59:19.814Z,32.00
